sensor_id;sensor_type;location;lat;lon;timestamp;P1;durP1;ratioP1;P2;durP2;ratioP2
38264;SDS011;24062;47.480;8.768;2022-07-29T00:00:11;11.83;;;2.80;;
38264;SDS011;24062;47.480;8.768;2022-07-29T00:02:38;10.57;;;2.47;;
38264;SDS011;24062;47.480;8.768;2022-07-29T00:05:05;14.03;;;2.97;;
38264;SDS011;24062;47.480;8.768;2022-07-29T00:07:36;12.07;;;2.60;;
38264;SDS011;24062;47.480;8.768;2022-07-29T00:10:03;11.07;;;2.43;;
38264;SDS011;24062;47.480;8.768;2022-07-29T00:12:30;11.17;;;2.30;;
38264;SDS011;24062;47.480;8.768;2022-07-29T00:14:57;12.47;;;2.87;;
38264;SDS011;24062;47.480;8.768;2022-07-29T00:17:24;11.17;;;2.53;;
38264;SDS011;24062;47.480;8.768;2022-07-29T00:19:51;11.30;;;2.80;;
38264;SDS011;24062;47.480;8.768;2022-07-29T00:22:18;17.27;;;2.30;;
38264;SDS011;24062;47.480;8.768;2022-07-29T00:24:48;12.13;;;2.37;;
38264;SDS011;24062;47.480;8.768;2022-07-29T00:27:15;10.60;;;2.60;;
38264;SDS011;24062;47.480;8.768;2022-07-29T00:29:41;10.80;;;2.50;;
38264;SDS011;24062;47.480;8.768;2022-07-29T00:32:08;10.57;;;2.50;;
38264;SDS011;24062;47.480;8.768;2022-07-29T00:34:35;10.53;;;2.10;;
38264;SDS011;24062;47.480;8.768;2022-07-29T00:37:20;11.23;;;1.93;;
38264;SDS011;24062;47.480;8.768;2022-07-29T00:39:48;10.23;;;2.40;;
38264;SDS011;24062;47.480;8.768;2022-07-29T00:42:15;12.13;;;2.47;;
38264;SDS011;24062;47.480;8.768;2022-07-29T00:44:42;12.43;;;2.63;;
38264;SDS011;24062;47.480;8.768;2022-07-29T00:47:09;10.33;;;2.37;;
38264;SDS011;24062;47.480;8.768;2022-07-29T00:49:37;9.80;;;2.00;;
38264;SDS011;24062;47.480;8.768;2022-07-29T00:52:06;12.50;;;2.10;;
38264;SDS011;24062;47.480;8.768;2022-07-29T00:54:34;12.20;;;2.60;;
38264;SDS011;24062;47.480;8.768;2022-07-29T00:57:03;13.40;;;2.60;;
38264;SDS011;24062;47.480;8.768;2022-07-29T00:59:32;11.00;;;2.23;;
38264;SDS011;24062;47.480;8.768;2022-07-29T01:01:59;10.80;;;2.20;;
38264;SDS011;24062;47.480;8.768;2022-07-29T01:04:26;10.80;;;2.27;;
38264;SDS011;24062;47.480;8.768;2022-07-29T01:06:54;10.63;;;2.03;;
38264;SDS011;24062;47.480;8.768;2022-07-29T01:09:21;11.00;;;2.40;;
38264;SDS011;24062;47.480;8.768;2022-07-29T01:11:49;11.00;;;2.27;;
38264;SDS011;24062;47.480;8.768;2022-07-29T01:14:18;10.47;;;2.60;;
38264;SDS011;24062;47.480;8.768;2022-07-29T01:16:48;12.53;;;2.30;;
38264;SDS011;24062;47.480;8.768;2022-07-29T01:19:26;10.43;;;2.17;;
38264;SDS011;24062;47.480;8.768;2022-07-29T01:22:13;10.40;;;2.17;;
38264;SDS011;24062;47.480;8.768;2022-07-29T01:27:59;10.60;;;2.33;;
38264;SDS011;24062;47.480;8.768;2022-07-29T01:30:35;10.10;;;1.90;;
38264;SDS011;24062;47.480;8.768;2022-07-29T01:33:05;11.03;;;3.10;;
38264;SDS011;24062;47.480;8.768;2022-07-29T01:35:36;11.67;;;2.23;;
38264;SDS011;24062;47.480;8.768;2022-07-29T01:38:07;9.60;;;1.77;;
38264;SDS011;24062;47.480;8.768;2022-07-29T01:40:39;12.10;;;1.93;;
38264;SDS011;24062;47.480;8.768;2022-07-29T01:43:11;10.90;;;2.00;;
38264;SDS011;24062;47.480;8.768;2022-07-29T01:45:43;13.63;;;2.73;;
38264;SDS011;24062;47.480;8.768;2022-07-29T01:48:15;10.53;;;2.10;;
38264;SDS011;24062;47.480;8.768;2022-07-29T01:50:46;10.37;;;1.97;;
38264;SDS011;24062;47.480;8.768;2022-07-29T01:53:16;9.47;;;1.77;;
38264;SDS011;24062;47.480;8.768;2022-07-29T01:55:51;9.90;;;1.93;;
38264;SDS011;24062;47.480;8.768;2022-07-29T01:58:19;14.80;;;2.10;;
38264;SDS011;24062;47.480;8.768;2022-07-29T02:00:49;13.50;;;1.80;;
38264;SDS011;24062;47.480;8.768;2022-07-29T02:03:17;11.43;;;2.20;;
38264;SDS011;24062;47.480;8.768;2022-07-29T02:05:45;12.27;;;2.10;;
38264;SDS011;24062;47.480;8.768;2022-07-29T02:08:14;10.20;;;1.87;;
38264;SDS011;24062;47.480;8.768;2022-07-29T02:10:44;9.73;;;1.70;;
38264;SDS011;24062;47.480;8.768;2022-07-29T02:13:13;11.20;;;2.10;;
38264;SDS011;24062;47.480;8.768;2022-07-29T02:15:42;10.40;;;2.03;;
38264;SDS011;24062;47.480;8.768;2022-07-29T02:18:13;10.40;;;2.10;;
38264;SDS011;24062;47.480;8.768;2022-07-29T02:20:42;11.80;;;1.90;;
38264;SDS011;24062;47.480;8.768;2022-07-29T02:23:11;11.73;;;2.60;;
38264;SDS011;24062;47.480;8.768;2022-07-29T02:25:40;10.77;;;1.80;;
38264;SDS011;24062;47.480;8.768;2022-07-29T02:28:09;14.33;;;2.27;;
38264;SDS011;24062;47.480;8.768;2022-07-29T02:30:36;11.60;;;2.13;;
38264;SDS011;24062;47.480;8.768;2022-07-29T02:33:07;10.10;;;2.17;;
38264;SDS011;24062;47.480;8.768;2022-07-29T02:35:38;11.10;;;2.13;;
38264;SDS011;24062;47.480;8.768;2022-07-29T02:38:07;12.00;;;2.13;;
38264;SDS011;24062;47.480;8.768;2022-07-29T02:40:53;11.80;;;2.13;;
38264;SDS011;24062;47.480;8.768;2022-07-29T02:43:21;10.63;;;2.23;;
38264;SDS011;24062;47.480;8.768;2022-07-29T02:45:50;11.33;;;2.10;;
38264;SDS011;24062;47.480;8.768;2022-07-29T02:48:19;13.93;;;2.17;;
38264;SDS011;24062;47.480;8.768;2022-07-29T02:50:56;9.97;;;2.00;;
38264;SDS011;24062;47.480;8.768;2022-07-29T02:53:31;11.30;;;1.90;;
38264;SDS011;24062;47.480;8.768;2022-07-29T02:56:03;12.50;;;2.47;;
38264;SDS011;24062;47.480;8.768;2022-07-29T02:58:34;18.37;;;2.70;;
38264;SDS011;24062;47.480;8.768;2022-07-29T03:01:08;13.00;;;2.37;;
38264;SDS011;24062;47.480;8.768;2022-07-29T03:03:39;10.20;;;1.70;;
38264;SDS011;24062;47.480;8.768;2022-07-29T03:06:08;11.27;;;1.77;;
38264;SDS011;24062;47.480;8.768;2022-07-29T03:08:38;12.20;;;2.63;;
38264;SDS011;24062;47.480;8.768;2022-07-29T03:11:05;11.20;;;2.10;;
38264;SDS011;24062;47.480;8.768;2022-07-29T03:13:35;11.60;;;2.10;;
38264;SDS011;24062;47.480;8.768;2022-07-29T03:16:02;12.50;;;2.27;;
38264;SDS011;24062;47.480;8.768;2022-07-29T03:18:31;12.30;;;2.03;;
38264;SDS011;24062;47.480;8.768;2022-07-29T03:20:58;10.17;;;1.97;;
38264;SDS011;24062;47.480;8.768;2022-07-29T03:23:26;10.67;;;1.83;;
38264;SDS011;24062;47.480;8.768;2022-07-29T03:25:53;14.03;;;2.30;;
38264;SDS011;24062;47.480;8.768;2022-07-29T03:28:20;11.00;;;1.73;;
38264;SDS011;24062;47.480;8.768;2022-07-29T03:30:47;11.50;;;1.93;;
38264;SDS011;24062;47.480;8.768;2022-07-29T03:33:14;10.17;;;2.03;;
38264;SDS011;24062;47.480;8.768;2022-07-29T03:35:41;12.13;;;1.83;;
38264;SDS011;24062;47.480;8.768;2022-07-29T03:38:08;11.13;;;1.70;;
38264;SDS011;24062;47.480;8.768;2022-07-29T03:40:38;11.00;;;1.97;;
38264;SDS011;24062;47.480;8.768;2022-07-29T03:43:08;12.40;;;2.50;;
38264;SDS011;24062;47.480;8.768;2022-07-29T03:45:37;15.33;;;2.30;;
38264;SDS011;24062;47.480;8.768;2022-07-29T03:48:08;11.27;;;2.10;;
38264;SDS011;24062;47.480;8.768;2022-07-29T03:50:38;10.00;;;1.80;;
38264;SDS011;24062;47.480;8.768;2022-07-29T03:53:06;9.80;;;1.60;;
38264;SDS011;24062;47.480;8.768;2022-07-29T03:55:36;11.43;;;1.43;;
38264;SDS011;24062;47.480;8.768;2022-07-29T03:58:07;11.40;;;2.47;;
38264;SDS011;24062;47.480;8.768;2022-07-29T04:00:34;9.93;;;1.80;;
38264;SDS011;24062;47.480;8.768;2022-07-29T04:03:02;11.30;;;2.20;;
38264;SDS011;24062;47.480;8.768;2022-07-29T04:05:30;15.20;;;2.00;;
38264;SDS011;24062;47.480;8.768;2022-07-29T04:07:57;10.03;;;1.80;;
38264;SDS011;24062;47.480;8.768;2022-07-29T04:10:24;12.90;;;1.20;;
38264;SDS011;24062;47.480;8.768;2022-07-29T04:12:52;12.13;;;1.70;;
38264;SDS011;24062;47.480;8.768;2022-07-29T04:15:19;11.20;;;1.80;;
38264;SDS011;24062;47.480;8.768;2022-07-29T04:17:46;9.47;;;1.70;;
38264;SDS011;24062;47.480;8.768;2022-07-29T04:20:13;10.03;;;2.07;;
38264;SDS011;24062;47.480;8.768;2022-07-29T04:22:40;10.77;;;1.63;;
38264;SDS011;24062;47.480;8.768;2022-07-29T04:25:07;9.73;;;1.37;;
38264;SDS011;24062;47.480;8.768;2022-07-29T04:27:34;15.10;;;2.00;;
38264;SDS011;24062;47.480;8.768;2022-07-29T04:30:23;9.80;;;1.70;;
38264;SDS011;24062;47.480;8.768;2022-07-29T04:32:49;11.40;;;1.97;;
38264;SDS011;24062;47.480;8.768;2022-07-29T04:35:16;9.57;;;1.67;;
38264;SDS011;24062;47.480;8.768;2022-07-29T04:37:43;10.50;;;1.87;;
38264;SDS011;24062;47.480;8.768;2022-07-29T04:40:11;9.40;;;1.57;;
38264;SDS011;24062;47.480;8.768;2022-07-29T04:42:38;11.07;;;1.80;;
38264;SDS011;24062;47.480;8.768;2022-07-29T04:45:05;10.87;;;1.90;;
38264;SDS011;24062;47.480;8.768;2022-07-29T04:47:34;9.83;;;1.73;;
38264;SDS011;24062;47.480;8.768;2022-07-29T04:50:01;11.80;;;1.73;;
38264;SDS011;24062;47.480;8.768;2022-07-29T04:52:28;9.90;;;1.63;;
38264;SDS011;24062;47.480;8.768;2022-07-29T04:54:55;11.53;;;2.03;;
38264;SDS011;24062;47.480;8.768;2022-07-29T04:57:22;10.83;;;1.97;;
38264;SDS011;24062;47.480;8.768;2022-07-29T04:59:49;11.20;;;1.67;;
38264;SDS011;24062;47.480;8.768;2022-07-29T05:02:16;11.10;;;1.83;;
38264;SDS011;24062;47.480;8.768;2022-07-29T05:04:44;10.60;;;1.70;;
38264;SDS011;24062;47.480;8.768;2022-07-29T05:07:11;11.50;;;1.60;;
38264;SDS011;24062;47.480;8.768;2022-07-29T05:09:38;10.60;;;1.70;;
38264;SDS011;24062;47.480;8.768;2022-07-29T05:12:05;10.17;;;1.90;;
38264;SDS011;24062;47.480;8.768;2022-07-29T05:14:33;14.17;;;1.83;;
38264;SDS011;24062;47.480;8.768;2022-07-29T05:16:59;10.00;;;1.67;;
38264;SDS011;24062;47.480;8.768;2022-07-29T05:19:26;9.90;;;2.00;;
38264;SDS011;24062;47.480;8.768;2022-07-29T05:21:55;10.60;;;1.80;;
38264;SDS011;24062;47.480;8.768;2022-07-29T05:24:22;10.40;;;1.57;;
38264;SDS011;24062;47.480;8.768;2022-07-29T05:26:48;10.53;;;1.77;;
38264;SDS011;24062;47.480;8.768;2022-07-29T05:29:15;11.17;;;1.63;;
38264;SDS011;24062;47.480;8.768;2022-07-29T05:31:42;11.93;;;1.97;;
38264;SDS011;24062;47.480;8.768;2022-07-29T05:34:09;11.87;;;1.73;;
38264;SDS011;24062;47.480;8.768;2022-07-29T05:36:36;9.80;;;1.97;;
38264;SDS011;24062;47.480;8.768;2022-07-29T05:39:04;10.30;;;1.73;;
38264;SDS011;24062;47.480;8.768;2022-07-29T05:41:31;10.90;;;2.47;;
38264;SDS011;24062;47.480;8.768;2022-07-29T05:43:58;12.60;;;2.10;;
38264;SDS011;24062;47.480;8.768;2022-07-29T05:46:25;11.50;;;2.40;;
38264;SDS011;24062;47.480;8.768;2022-07-29T05:48:52;10.83;;;2.30;;
38264;SDS011;24062;47.480;8.768;2022-07-29T05:51:19;11.03;;;2.17;;
38264;SDS011;24062;47.480;8.768;2022-07-29T05:53:46;13.10;;;2.50;;
38264;SDS011;24062;47.480;8.768;2022-07-29T05:56:14;16.03;;;3.20;;
38264;SDS011;24062;47.480;8.768;2022-07-29T05:58:41;15.70;;;3.23;;
38264;SDS011;24062;47.480;8.768;2022-07-29T06:01:08;12.20;;;2.80;;
38264;SDS011;24062;47.480;8.768;2022-07-29T06:03:35;12.17;;;2.73;;
38264;SDS011;24062;47.480;8.768;2022-07-29T06:06:02;11.20;;;2.20;;
38264;SDS011;24062;47.480;8.768;2022-07-29T06:08:31;13.00;;;2.50;;
38264;SDS011;24062;47.480;8.768;2022-07-29T06:10:58;10.30;;;2.10;;
38264;SDS011;24062;47.480;8.768;2022-07-29T06:13:27;13.00;;;2.90;;
38264;SDS011;24062;47.480;8.768;2022-07-29T06:15:53;12.93;;;3.20;;
38264;SDS011;24062;47.480;8.768;2022-07-29T06:18:20;12.40;;;2.70;;
38264;SDS011;24062;47.480;8.768;2022-07-29T06:20:49;11.40;;;2.40;;
38264;SDS011;24062;47.480;8.768;2022-07-29T06:23:15;12.63;;;2.80;;
38264;SDS011;24062;47.480;8.768;2022-07-29T06:25:42;12.33;;;2.50;;
38264;SDS011;24062;47.480;8.768;2022-07-29T06:28:09;13.00;;;2.43;;
38264;SDS011;24062;47.480;8.768;2022-07-29T06:30:37;11.17;;;1.93;;
38264;SDS011;24062;47.480;8.768;2022-07-29T06:33:05;12.20;;;2.47;;
38264;SDS011;24062;47.480;8.768;2022-07-29T06:35:33;11.00;;;2.30;;
38264;SDS011;24062;47.480;8.768;2022-07-29T06:38:01;12.23;;;1.90;;
38264;SDS011;24062;47.480;8.768;2022-07-29T06:40:28;10.23;;;1.57;;
38264;SDS011;24062;47.480;8.768;2022-07-29T06:43:13;10.80;;;1.90;;
38264;SDS011;24062;47.480;8.768;2022-07-29T06:45:41;10.57;;;1.80;;
38264;SDS011;24062;47.480;8.768;2022-07-29T06:48:08;12.30;;;2.40;;
38264;SDS011;24062;47.480;8.768;2022-07-29T06:50:35;13.47;;;2.50;;
38264;SDS011;24062;47.480;8.768;2022-07-29T06:53:02;11.53;;;2.00;;
38264;SDS011;24062;47.480;8.768;2022-07-29T06:55:30;13.60;;;2.30;;
38264;SDS011;24062;47.480;8.768;2022-07-29T06:57:57;13.80;;;2.33;;
38264;SDS011;24062;47.480;8.768;2022-07-29T07:00:24;11.00;;;1.93;;
38264;SDS011;24062;47.480;8.768;2022-07-29T07:02:53;14.53;;;2.03;;
38264;SDS011;24062;47.480;8.768;2022-07-29T07:05:19;12.20;;;2.03;;
38264;SDS011;24062;47.480;8.768;2022-07-29T07:07:46;11.30;;;1.80;;
38264;SDS011;24062;47.480;8.768;2022-07-29T07:10:13;14.10;;;1.60;;
38264;SDS011;24062;47.480;8.768;2022-07-29T07:12:40;10.23;;;1.40;;
38264;SDS011;24062;47.480;8.768;2022-07-29T07:15:07;10.50;;;1.40;;
38264;SDS011;24062;47.480;8.768;2022-07-29T07:17:35;9.97;;;1.17;;
38264;SDS011;24062;47.480;8.768;2022-07-29T07:20:04;12.53;;;1.67;;
38264;SDS011;24062;47.480;8.768;2022-07-29T07:22:32;11.50;;;1.67;;
38264;SDS011;24062;47.480;8.768;2022-07-29T07:24:59;13.23;;;1.93;;
38264;SDS011;24062;47.480;8.768;2022-07-29T07:27:26;10.00;;;1.50;;
38264;SDS011;24062;47.480;8.768;2022-07-29T07:29:53;11.43;;;2.00;;
38264;SDS011;24062;47.480;8.768;2022-07-29T07:32:20;11.73;;;1.90;;
38264;SDS011;24062;47.480;8.768;2022-07-29T07:34:47;14.30;;;2.73;;
38264;SDS011;24062;47.480;8.768;2022-07-29T07:37:15;10.67;;;1.87;;
38264;SDS011;24062;47.480;8.768;2022-07-29T07:39:44;14.53;;;1.83;;
38264;SDS011;24062;47.480;8.768;2022-07-29T07:42:11;11.20;;;1.87;;
38264;SDS011;24062;47.480;8.768;2022-07-29T07:44:38;10.30;;;1.53;;
38264;SDS011;24062;47.480;8.768;2022-07-29T07:47:05;11.00;;;1.90;;
38264;SDS011;24062;47.480;8.768;2022-07-29T07:49:32;12.07;;;2.70;;
38264;SDS011;24062;47.480;8.768;2022-07-29T07:51:59;10.97;;;2.00;;
38264;SDS011;24062;47.480;8.768;2022-07-29T07:54:27;11.30;;;2.23;;
38264;SDS011;24062;47.480;8.768;2022-07-29T07:56:54;11.50;;;2.10;;
38264;SDS011;24062;47.480;8.768;2022-07-29T07:59:21;10.83;;;1.73;;
38264;SDS011;24062;47.480;8.768;2022-07-29T08:01:48;11.10;;;2.10;;
38264;SDS011;24062;47.480;8.768;2022-07-29T08:04:15;16.73;;;2.73;;
38264;SDS011;24062;47.480;8.768;2022-07-29T08:06:42;12.10;;;2.50;;
38264;SDS011;24062;47.480;8.768;2022-07-29T08:09:09;10.70;;;2.30;;
38264;SDS011;24062;47.480;8.768;2022-07-29T08:11:37;12.53;;;2.10;;
38264;SDS011;24062;47.480;8.768;2022-07-29T08:14:04;12.23;;;2.00;;
38264;SDS011;24062;47.480;8.768;2022-07-29T08:16:31;13.13;;;2.50;;
38264;SDS011;24062;47.480;8.768;2022-07-29T08:18:58;10.43;;;2.00;;
38264;SDS011;24062;47.480;8.768;2022-07-29T08:21:25;10.53;;;1.70;;
38264;SDS011;24062;47.480;8.768;2022-07-29T08:23:52;11.30;;;1.90;;
38264;SDS011;24062;47.480;8.768;2022-07-29T08:26:40;11.83;;;2.33;;
38264;SDS011;24062;47.480;8.768;2022-07-29T08:29:08;13.97;;;2.80;;
38264;SDS011;24062;47.480;8.768;2022-07-29T08:31:35;11.57;;;2.30;;
38264;SDS011;24062;47.480;8.768;2022-07-29T08:34:02;13.27;;;2.60;;
38264;SDS011;24062;47.480;8.768;2022-07-29T08:36:29;12.47;;;2.37;;
38264;SDS011;24062;47.480;8.768;2022-07-29T08:38:56;14.10;;;2.20;;
38264;SDS011;24062;47.480;8.768;2022-07-29T08:41:24;13.67;;;2.10;;
38264;SDS011;24062;47.480;8.768;2022-07-29T08:43:53;10.90;;;2.47;;
38264;SDS011;24062;47.480;8.768;2022-07-29T08:46:20;15.13;;;2.40;;
38264;SDS011;24062;47.480;8.768;2022-07-29T08:48:48;12.47;;;2.50;;
38264;SDS011;24062;47.480;8.768;2022-07-29T08:51:16;11.07;;;2.00;;
38264;SDS011;24062;47.480;8.768;2022-07-29T08:53:45;13.10;;;2.70;;
38264;SDS011;24062;47.480;8.768;2022-07-29T08:56:14;17.20;;;2.67;;
38264;SDS011;24062;47.480;8.768;2022-07-29T08:58:43;14.27;;;2.70;;
38264;SDS011;24062;47.480;8.768;2022-07-29T09:01:13;11.73;;;2.67;;
38264;SDS011;24062;47.480;8.768;2022-07-29T09:03:42;11.70;;;2.47;;
38264;SDS011;24062;47.480;8.768;2022-07-29T09:06:12;10.50;;;2.60;;
38264;SDS011;24062;47.480;8.768;2022-07-29T09:08:39;15.00;;;2.30;;
38264;SDS011;24062;47.480;8.768;2022-07-29T09:11:06;15.63;;;2.67;;
38264;SDS011;24062;47.480;8.768;2022-07-29T09:13:34;10.73;;;2.17;;
38264;SDS011;24062;47.480;8.768;2022-07-29T09:16:01;13.27;;;2.67;;
38264;SDS011;24062;47.480;8.768;2022-07-29T09:18:36;12.93;;;2.10;;
38264;SDS011;24062;47.480;8.768;2022-07-29T09:21:04;12.10;;;2.67;;
38264;SDS011;24062;47.480;8.768;2022-07-29T09:23:59;14.00;;;2.30;;
38264;SDS011;24062;47.480;8.768;2022-07-29T09:26:32;10.97;;;2.43;;
38264;SDS011;24062;47.480;8.768;2022-07-29T09:29:01;13.07;;;2.73;;
38264;SDS011;24062;47.480;8.768;2022-07-29T09:31:35;12.70;;;2.50;;
38264;SDS011;24062;47.480;8.768;2022-07-29T09:34:04;18.00;;;2.23;;
38264;SDS011;24062;47.480;8.768;2022-07-29T09:36:38;14.63;;;1.90;;
38264;SDS011;24062;47.480;8.768;2022-07-29T09:39:05;11.33;;;1.70;;
38264;SDS011;24062;47.480;8.768;2022-07-29T09:41:43;9.90;;;1.30;;
38264;SDS011;24062;47.480;8.768;2022-07-29T09:44:11;11.67;;;1.53;;
38264;SDS011;24062;47.480;8.768;2022-07-29T09:46:39;13.70;;;1.77;;
38264;SDS011;24062;47.480;8.768;2022-07-29T09:49:10;10.27;;;1.53;;
38264;SDS011;24062;47.480;8.768;2022-07-29T09:51:39;14.87;;;1.87;;
38264;SDS011;24062;47.480;8.768;2022-07-29T09:54:21;10.90;;;1.90;;
38264;SDS011;24062;47.480;8.768;2022-07-29T09:56:49;12.93;;;2.10;;
38264;SDS011;24062;47.480;8.768;2022-07-29T09:59:16;11.40;;;1.80;;
38264;SDS011;24062;47.480;8.768;2022-07-29T10:01:43;12.10;;;1.90;;
38264;SDS011;24062;47.480;8.768;2022-07-29T10:04:11;12.07;;;2.07;;
38264;SDS011;24062;47.480;8.768;2022-07-29T10:09:23;11.90;;;1.73;;
38264;SDS011;24062;47.480;8.768;2022-07-29T10:12:02;11.53;;;2.33;;
38264;SDS011;24062;47.480;8.768;2022-07-29T10:14:38;12.63;;;2.23;;
38264;SDS011;24062;47.480;8.768;2022-07-29T10:17:06;10.80;;;1.57;;
38264;SDS011;24062;47.480;8.768;2022-07-29T10:19:36;10.50;;;1.73;;
38264;SDS011;24062;47.480;8.768;2022-07-29T10:22:05;13.10;;;2.00;;
38264;SDS011;24062;47.480;8.768;2022-07-29T10:24:34;12.10;;;2.27;;
38264;SDS011;24062;47.480;8.768;2022-07-29T10:27:03;11.30;;;1.70;;
38264;SDS011;24062;47.480;8.768;2022-07-29T10:29:30;12.90;;;1.83;;
38264;SDS011;24062;47.480;8.768;2022-07-29T10:32:02;11.23;;;1.90;;
38264;SDS011;24062;47.480;8.768;2022-07-29T10:34:51;11.27;;;1.93;;
38264;SDS011;24062;47.480;8.768;2022-07-29T10:37:49;11.70;;;2.00;;
38264;SDS011;24062;47.480;8.768;2022-07-29T10:40:37;11.70;;;2.47;;
38264;SDS011;24062;47.480;8.768;2022-07-29T10:43:29;15.00;;;1.87;;
38264;SDS011;24062;47.480;8.768;2022-07-29T10:46:01;11.80;;;1.67;;
38264;SDS011;24062;47.480;8.768;2022-07-29T10:48:29;13.27;;;2.10;;
38264;SDS011;24062;47.480;8.768;2022-07-29T10:50:58;11.53;;;1.80;;
38264;SDS011;24062;47.480;8.768;2022-07-29T10:53:46;11.40;;;2.40;;
38264;SDS011;24062;47.480;8.768;2022-07-29T10:56:23;10.60;;;1.73;;
38264;SDS011;24062;47.480;8.768;2022-07-29T11:01:51;11.30;;;1.70;;
38264;SDS011;24062;47.480;8.768;2022-07-29T11:07:27;12.15;;;2.05;;
38264;SDS011;24062;47.480;8.768;2022-07-29T11:12:49;10.82;;;1.55;;
38264;SDS011;24062;47.480;8.768;2022-07-29T11:15:18;11.23;;;1.80;;
38264;SDS011;24062;47.480;8.768;2022-07-29T11:20:33;11.35;;;2.20;;
38264;SDS011;24062;47.480;8.768;2022-07-29T11:23:15;12.13;;;1.70;;
38264;SDS011;24062;47.480;8.768;2022-07-29T11:25:44;11.50;;;1.88;;
38264;SDS011;24062;47.480;8.768;2022-07-29T11:28:13;12.38;;;2.28;;
38264;SDS011;24062;47.480;8.768;2022-07-29T11:30:50;10.85;;;1.90;;
38264;SDS011;24062;47.480;8.768;2022-07-29T11:33:27;11.32;;;1.88;;
38264;SDS011;24062;47.480;8.768;2022-07-29T11:36:07;11.27;;;2.10;;
38264;SDS011;24062;47.480;8.768;2022-07-29T11:38:36;10.80;;;1.90;;
38264;SDS011;24062;47.480;8.768;2022-07-29T11:41:22;13.40;;;1.77;;
38264;SDS011;24062;47.480;8.768;2022-07-29T11:43:51;11.07;;;2.08;;
38264;SDS011;24062;47.480;8.768;2022-07-29T11:49:10;12.57;;;2.30;;
38264;SDS011;24062;47.480;8.768;2022-07-29T11:51:37;11.73;;;1.75;;
38264;SDS011;24062;47.480;8.768;2022-07-29T11:54:07;14.70;;;2.20;;
38264;SDS011;24062;47.480;8.768;2022-07-29T11:56:37;11.85;;;2.20;;
38264;SDS011;24062;47.480;8.768;2022-07-29T11:59:08;12.32;;;2.80;;
38264;SDS011;24062;47.480;8.768;2022-07-29T12:01:36;12.75;;;2.25;;
38264;SDS011;24062;47.480;8.768;2022-07-29T12:04:17;12.20;;;2.60;;
38264;SDS011;24062;47.480;8.768;2022-07-29T12:06:48;11.88;;;2.25;;
38264;SDS011;24062;47.480;8.768;2022-07-29T12:09:17;14.13;;;2.60;;
38264;SDS011;24062;47.480;8.768;2022-07-29T12:11:45;11.40;;;2.10;;
38264;SDS011;24062;47.480;8.768;2022-07-29T12:14:24;13.73;;;2.65;;
38264;SDS011;24062;47.480;8.768;2022-07-29T12:16:51;12.68;;;2.92;;
38264;SDS011;24062;47.480;8.768;2022-07-29T12:19:18;11.05;;;2.17;;
38264;SDS011;24062;47.480;8.768;2022-07-29T12:21:45;14.35;;;2.47;;
38264;SDS011;24062;47.480;8.768;2022-07-29T12:24:13;11.68;;;2.40;;
38264;SDS011;24062;47.480;8.768;2022-07-29T12:26:50;12.40;;;2.47;;
38264;SDS011;24062;47.480;8.768;2022-07-29T12:29:17;11.73;;;2.28;;
38264;SDS011;24062;47.480;8.768;2022-07-29T12:31:45;13.38;;;2.25;;
38264;SDS011;24062;47.480;8.768;2022-07-29T12:34:13;12.45;;;2.30;;
38264;SDS011;24062;47.480;8.768;2022-07-29T12:36:42;12.10;;;2.47;;
38264;SDS011;24062;47.480;8.768;2022-07-29T12:39:09;12.55;;;2.28;;
38264;SDS011;24062;47.480;8.768;2022-07-29T12:41:37;11.57;;;2.10;;
38264;SDS011;24062;47.480;8.768;2022-07-29T12:44:06;13.00;;;2.10;;
38264;SDS011;24062;47.480;8.768;2022-07-29T12:46:32;11.50;;;1.85;;
38264;SDS011;24062;47.480;8.768;2022-07-29T12:48:59;14.50;;;2.08;;
38264;SDS011;24062;47.480;8.768;2022-07-29T12:51:30;12.55;;;2.20;;
38264;SDS011;24062;47.480;8.768;2022-07-29T12:54:08;15.00;;;2.28;;
38264;SDS011;24062;47.480;8.768;2022-07-29T12:56:36;13.00;;;2.70;;
38264;SDS011;24062;47.480;8.768;2022-07-29T12:59:16;11.57;;;2.20;;
38264;SDS011;24062;47.480;8.768;2022-07-29T13:01:44;13.85;;;2.13;;
38264;SDS011;24062;47.480;8.768;2022-07-29T13:04:23;12.70;;;2.38;;
38264;SDS011;24062;47.480;8.768;2022-07-29T13:06:57;12.70;;;2.80;;
38264;SDS011;24062;47.480;8.768;2022-07-29T13:09:35;11.50;;;2.47;;
38264;SDS011;24062;47.480;8.768;2022-07-29T13:12:05;13.48;;;2.55;;
38264;SDS011;24062;47.480;8.768;2022-07-29T13:14:37;12.50;;;2.78;;
38264;SDS011;24062;47.480;8.768;2022-07-29T13:17:05;12.10;;;2.53;;
38264;SDS011;24062;47.480;8.768;2022-07-29T13:19:34;12.82;;;2.50;;
38264;SDS011;24062;47.480;8.768;2022-07-29T13:22:03;13.32;;;2.47;;
38264;SDS011;24062;47.480;8.768;2022-07-29T13:24:30;12.13;;;2.63;;
38264;SDS011;24062;47.480;8.768;2022-07-29T13:26:57;12.03;;;2.70;;
38264;SDS011;24062;47.480;8.768;2022-07-29T13:29:24;13.45;;;2.75;;
38264;SDS011;24062;47.480;8.768;2022-07-29T13:31:53;13.50;;;2.77;;
38264;SDS011;24062;47.480;8.768;2022-07-29T13:34:20;12.77;;;2.63;;
38264;SDS011;24062;47.480;8.768;2022-07-29T13:36:49;13.10;;;2.80;;
38264;SDS011;24062;47.480;8.768;2022-07-29T13:39:16;13.63;;;3.10;;
38264;SDS011;24062;47.480;8.768;2022-07-29T13:41:42;21.07;;;4.17;;
38264;SDS011;24062;47.480;8.768;2022-07-29T13:44:09;61.10;;;6.20;;
38264;SDS011;24062;47.480;8.768;2022-07-29T13:46:36;91.53;;;8.80;;
38264;SDS011;24062;47.480;8.768;2022-07-29T13:49:04;37.17;;;7.30;;
38264;SDS011;24062;47.480;8.768;2022-07-29T13:51:31;29.40;;;7.60;;
38264;SDS011;24062;47.480;8.768;2022-07-29T13:53:58;22.87;;;11.00;;
38264;SDS011;24062;47.480;8.768;2022-07-29T13:56:25;27.33;;;12.30;;
38264;SDS011;24062;47.480;8.768;2022-07-29T13:58:52;27.37;;;10.80;;
38264;SDS011;24062;47.480;8.768;2022-07-29T14:01:19;23.40;;;10.93;;
38264;SDS011;24062;47.480;8.768;2022-07-29T14:03:46;23.70;;;9.80;;
38264;SDS011;24062;47.480;8.768;2022-07-29T14:06:14;22.70;;;9.60;;
38264;SDS011;24062;47.480;8.768;2022-07-29T14:08:41;26.90;;;8.47;;
38264;SDS011;24062;47.480;8.768;2022-07-29T14:11:08;17.27;;;7.20;;
38264;SDS011;24062;47.480;8.768;2022-07-29T14:13:35;21.23;;;7.60;;
38264;SDS011;24062;47.480;8.768;2022-07-29T14:16:02;18.40;;;8.20;;
38264;SDS011;24062;47.480;8.768;2022-07-29T14:18:29;18.90;;;7.83;;
38264;SDS011;24062;47.480;8.768;2022-07-29T14:20:56;17.40;;;6.40;;
38264;SDS011;24062;47.480;8.768;2022-07-29T14:23:24;18.10;;;5.83;;
38264;SDS011;24062;47.480;8.768;2022-07-29T14:25:51;14.47;;;5.50;;
38264;SDS011;24062;47.480;8.768;2022-07-29T14:28:18;16.47;;;6.10;;
38264;SDS011;24062;47.480;8.768;2022-07-29T14:30:45;15.20;;;5.77;;
38264;SDS011;24062;47.480;8.768;2022-07-29T14:33:12;14.43;;;5.33;;
38264;SDS011;24062;47.480;8.768;2022-07-29T14:35:39;14.77;;;4.43;;
38264;SDS011;24062;47.480;8.768;2022-07-29T14:38:06;13.73;;;4.77;;
38264;SDS011;24062;47.480;8.768;2022-07-29T14:40:34;14.90;;;4.67;;
38264;SDS011;24062;47.480;8.768;2022-07-29T14:43:02;13.53;;;3.80;;
38264;SDS011;24062;47.480;8.768;2022-07-29T14:45:28;12.37;;;4.10;;
38264;SDS011;24062;47.480;8.768;2022-07-29T14:47:56;19.93;;;10.33;;
38264;SDS011;24062;47.480;8.768;2022-07-29T14:50:23;15.83;;;4.53;;
38264;SDS011;24062;47.480;8.768;2022-07-29T14:55:00;15.70;;;4.60;;
38264;SDS011;24062;47.480;8.768;2022-07-29T15:03:55;12.80;;;3.35;;
